sensor_id;sensor_type;location;lat;lon;timestamp;P1;durP1;ratioP1;P2;durP2;ratioP2
74908;SDS011;63468;52.058;4.824;2023-05-29T00:00:37;11.60;;;7.13;;
74908;SDS011;63468;52.058;4.824;2023-05-29T00:03:02;12.20;;;7.25;;
74908;SDS011;63468;52.058;4.824;2023-05-29T00:05:29;13.35;;;6.43;;
74908;SDS011;63468;52.058;4.824;2023-05-29T00:07:55;16.88;;;6.63;;
74908;SDS011;63468;52.058;4.824;2023-05-29T00:10:20;12.20;;;6.82;;
74908;SDS011;63468;52.058;4.824;2023-05-29T00:12:46;13.98;;;6.65;;
74908;SDS011;63468;52.058;4.824;2023-05-29T00:15:11;21.05;;;7.80;;
74908;SDS011;63468;52.058;4.824;2023-05-29T00:17:37;14.98;;;6.28;;
74908;SDS011;63468;52.058;4.824;2023-05-29T00:20:03;18.48;;;7.50;;
74908;SDS011;63468;52.058;4.824;2023-05-29T00:22:33;15.35;;;6.15;;
74908;SDS011;63468;52.058;4.824;2023-05-29T00:25:02;20.80;;;6.53;;
74908;SDS011;63468;52.058;4.824;2023-05-29T00:27:28;13.75;;;6.68;;
74908;SDS011;63468;52.058;4.824;2023-05-29T00:29:54;15.27;;;6.90;;
74908;SDS011;63468;52.058;4.824;2023-05-29T00:32:19;16.60;;;7.25;;
74908;SDS011;63468;52.058;4.824;2023-05-29T00:34:45;19.13;;;7.88;;
74908;SDS011;63468;52.058;4.824;2023-05-29T00:37:10;19.58;;;6.47;;
74908;SDS011;63468;52.058;4.824;2023-05-29T00:39:35;15.07;;;6.70;;
74908;SDS011;63468;52.058;4.824;2023-05-29T00:42:01;15.68;;;7.10;;
74908;SDS011;63468;52.058;4.824;2023-05-29T00:44:26;14.07;;;7.28;;
74908;SDS011;63468;52.058;4.824;2023-05-29T00:46:52;12.77;;;7.10;;
74908;SDS011;63468;52.058;4.824;2023-05-29T00:49:18;13.60;;;7.35;;
74908;SDS011;63468;52.058;4.824;2023-05-29T00:51:44;17.15;;;6.68;;
74908;SDS011;63468;52.058;4.824;2023-05-29T00:54:11;9.43;;;6.07;;
74908;SDS011;63468;52.058;4.824;2023-05-29T00:56:38;12.95;;;6.55;;
74908;SDS011;63468;52.058;4.824;2023-05-29T00:59:04;17.80;;;6.68;;
74908;SDS011;63468;52.058;4.824;2023-05-29T01:01:30;13.63;;;6.78;;
74908;SDS011;63468;52.058;4.824;2023-05-29T01:03:57;16.65;;;6.65;;
74908;SDS011;63468;52.058;4.824;2023-05-29T01:06:24;12.80;;;6.55;;
74908;SDS011;63468;52.058;4.824;2023-05-29T01:08:50;15.63;;;6.68;;
74908;SDS011;63468;52.058;4.824;2023-05-29T01:11:21;19.67;;;7.97;;
74908;SDS011;63468;52.058;4.824;2023-05-29T01:13:53;9.90;;;6.10;;
74908;SDS011;63468;52.058;4.824;2023-05-29T01:16:26;16.70;;;7.07;;
74908;SDS011;63468;52.058;4.824;2023-05-29T01:19:16;17.10;;;7.05;;
74908;SDS011;63468;52.058;4.824;2023-05-29T01:22:11;11.52;;;6.40;;
74908;SDS011;63468;52.058;4.824;2023-05-29T01:24:54;14.48;;;6.68;;
74908;SDS011;63468;52.058;4.824;2023-05-29T01:27:24;12.85;;;6.03;;
74908;SDS011;63468;52.058;4.824;2023-05-29T01:29:50;10.80;;;6.55;;
74908;SDS011;63468;52.058;4.824;2023-05-29T01:32:17;13.95;;;6.60;;
74908;SDS011;63468;52.058;4.824;2023-05-29T01:34:42;11.88;;;6.53;;
74908;SDS011;63468;52.058;4.824;2023-05-29T01:37:08;17.63;;;7.90;;
74908;SDS011;63468;52.058;4.824;2023-05-29T01:39:33;18.13;;;6.18;;
74908;SDS011;63468;52.058;4.824;2023-05-29T01:41:59;18.45;;;6.95;;
74908;SDS011;63468;52.058;4.824;2023-05-29T01:44:25;10.43;;;5.90;;
74908;SDS011;63468;52.058;4.824;2023-05-29T01:46:50;11.50;;;6.38;;
74908;SDS011;63468;52.058;4.824;2023-05-29T01:49:16;10.30;;;6.03;;
74908;SDS011;63468;52.058;4.824;2023-05-29T01:51:42;10.88;;;6.55;;
74908;SDS011;63468;52.058;4.824;2023-05-29T01:54:07;15.02;;;6.65;;
74908;SDS011;63468;52.058;4.824;2023-05-29T01:56:33;18.23;;;7.07;;
74908;SDS011;63468;52.058;4.824;2023-05-29T01:58:58;16.95;;;6.50;;
74908;SDS011;63468;52.058;4.824;2023-05-29T02:01:26;16.05;;;6.57;;
74908;SDS011;63468;52.058;4.824;2023-05-29T02:03:51;14.30;;;6.45;;
74908;SDS011;63468;52.058;4.824;2023-05-29T02:06:17;13.07;;;6.28;;
74908;SDS011;63468;52.058;4.824;2023-05-29T02:08:42;14.43;;;6.38;;
74908;SDS011;63468;52.058;4.824;2023-05-29T02:11:07;14.90;;;6.72;;
74908;SDS011;63468;52.058;4.824;2023-05-29T02:13:33;16.35;;;7.40;;
74908;SDS011;63468;52.058;4.824;2023-05-29T02:15:58;14.13;;;8.38;;
74908;SDS011;63468;52.058;4.824;2023-05-29T02:18:24;11.98;;;5.80;;
74908;SDS011;63468;52.058;4.824;2023-05-29T02:20:50;13.45;;;6.78;;
74908;SDS011;63468;52.058;4.824;2023-05-29T02:23:15;10.90;;;5.85;;
74908;SDS011;63468;52.058;4.824;2023-05-29T02:25:42;9.98;;;6.35;;
74908;SDS011;63468;52.058;4.824;2023-05-29T02:28:08;11.35;;;5.72;;
74908;SDS011;63468;52.058;4.824;2023-05-29T02:30:34;9.82;;;6.22;;
74908;SDS011;63468;52.058;4.824;2023-05-29T02:32:59;15.05;;;6.95;;
74908;SDS011;63468;52.058;4.824;2023-05-29T02:35:25;18.20;;;6.70;;
74908;SDS011;63468;52.058;4.824;2023-05-29T02:37:51;13.73;;;6.57;;
74908;SDS011;63468;52.058;4.824;2023-05-29T02:40:17;13.27;;;5.88;;
74908;SDS011;63468;52.058;4.824;2023-05-29T02:42:42;11.32;;;6.28;;
74908;SDS011;63468;52.058;4.824;2023-05-29T02:45:08;9.60;;;5.10;;
74908;SDS011;63468;52.058;4.824;2023-05-29T02:47:35;12.00;;;5.90;;
74908;SDS011;63468;52.058;4.824;2023-05-29T02:50:01;15.30;;;5.80;;
74908;SDS011;63468;52.058;4.824;2023-05-29T02:52:26;11.88;;;5.45;;
74908;SDS011;63468;52.058;4.824;2023-05-29T02:54:52;13.60;;;6.40;;
74908;SDS011;63468;52.058;4.824;2023-05-29T02:57:19;9.07;;;6.47;;
74908;SDS011;63468;52.058;4.824;2023-05-29T02:59:45;13.02;;;5.82;;
74908;SDS011;63468;52.058;4.824;2023-05-29T03:02:10;21.17;;;6.80;;
74908;SDS011;63468;52.058;4.824;2023-05-29T03:04:36;13.05;;;5.78;;
74908;SDS011;63468;52.058;4.824;2023-05-29T03:07:01;15.55;;;5.90;;
74908;SDS011;63468;52.058;4.824;2023-05-29T03:09:26;12.70;;;5.30;;
74908;SDS011;63468;52.058;4.824;2023-05-29T03:11:52;14.98;;;5.32;;
74908;SDS011;63468;52.058;4.824;2023-05-29T03:14:17;10.63;;;5.22;;
74908;SDS011;63468;52.058;4.824;2023-05-29T03:16:43;13.95;;;6.13;;
74908;SDS011;63468;52.058;4.824;2023-05-29T03:19:10;10.52;;;5.97;;
74908;SDS011;63468;52.058;4.824;2023-05-29T03:21:35;11.35;;;5.53;;
74908;SDS011;63468;52.058;4.824;2023-05-29T03:24:01;14.20;;;5.57;;
74908;SDS011;63468;52.058;4.824;2023-05-29T03:26:27;9.45;;;5.53;;
74908;SDS011;63468;52.058;4.824;2023-05-29T03:28:53;9.60;;;5.80;;
74908;SDS011;63468;52.058;4.824;2023-05-29T03:31:18;9.90;;;5.68;;
74908;SDS011;63468;52.058;4.824;2023-05-29T03:33:44;17.73;;;6.00;;
74908;SDS011;63468;52.058;4.824;2023-05-29T03:36:10;13.63;;;6.20;;
74908;SDS011;63468;52.058;4.824;2023-05-29T03:38:35;13.27;;;5.88;;
74908;SDS011;63468;52.058;4.824;2023-05-29T03:41:01;12.43;;;5.80;;
74908;SDS011;63468;52.058;4.824;2023-05-29T03:43:26;10.95;;;5.97;;
74908;SDS011;63468;52.058;4.824;2023-05-29T03:45:51;12.85;;;5.60;;
74908;SDS011;63468;52.058;4.824;2023-05-29T03:48:17;12.00;;;5.22;;
74908;SDS011;63468;52.058;4.824;2023-05-29T03:50:42;12.18;;;5.78;;
74908;SDS011;63468;52.058;4.824;2023-05-29T03:53:07;12.98;;;5.30;;
74908;SDS011;63468;52.058;4.824;2023-05-29T03:55:33;15.05;;;7.35;;
74908;SDS011;63468;52.058;4.824;2023-05-29T03:57:58;13.27;;;6.72;;
74908;SDS011;63468;52.058;4.824;2023-05-29T04:00:23;9.70;;;5.75;;
74908;SDS011;63468;52.058;4.824;2023-05-29T04:02:49;13.75;;;6.55;;
74908;SDS011;63468;52.058;4.824;2023-05-29T04:05:14;9.95;;;5.75;;
74908;SDS011;63468;52.058;4.824;2023-05-29T04:07:39;12.32;;;6.32;;
74908;SDS011;63468;52.058;4.824;2023-05-29T04:10:05;17.90;;;6.63;;
74908;SDS011;63468;52.058;4.824;2023-05-29T04:12:32;12.68;;;6.07;;
74908;SDS011;63468;52.058;4.824;2023-05-29T04:14:57;11.82;;;6.45;;
74908;SDS011;63468;52.058;4.824;2023-05-29T04:17:23;16.38;;;7.50;;
74908;SDS011;63468;52.058;4.824;2023-05-29T04:19:48;12.95;;;6.30;;
74908;SDS011;63468;52.058;4.824;2023-05-29T04:22:14;14.18;;;6.35;;
74908;SDS011;63468;52.058;4.824;2023-05-29T04:24:39;16.38;;;6.40;;
74908;SDS011;63468;52.058;4.824;2023-05-29T04:27:05;12.88;;;6.63;;
74908;SDS011;63468;52.058;4.824;2023-05-29T04:29:30;17.40;;;7.10;;
74908;SDS011;63468;52.058;4.824;2023-05-29T04:31:57;16.95;;;7.30;;
74908;SDS011;63468;52.058;4.824;2023-05-29T04:34:22;15.25;;;6.78;;
74908;SDS011;63468;52.058;4.824;2023-05-29T04:36:48;14.55;;;7.20;;
74908;SDS011;63468;52.058;4.824;2023-05-29T04:39:13;15.68;;;7.15;;
74908;SDS011;63468;52.058;4.824;2023-05-29T04:41:39;12.68;;;7.90;;
74908;SDS011;63468;52.058;4.824;2023-05-29T04:44:05;15.98;;;7.65;;
74908;SDS011;63468;52.058;4.824;2023-05-29T04:46:31;11.93;;;6.63;;
74908;SDS011;63468;52.058;4.824;2023-05-29T04:48:56;13.52;;;7.45;;
74908;SDS011;63468;52.058;4.824;2023-05-29T04:51:22;12.43;;;8.02;;
74908;SDS011;63468;52.058;4.824;2023-05-29T04:53:48;14.43;;;7.63;;
74908;SDS011;63468;52.058;4.824;2023-05-29T04:56:16;12.93;;;7.72;;
74908;SDS011;63468;52.058;4.824;2023-05-29T04:58:43;12.60;;;7.72;;
74908;SDS011;63468;52.058;4.824;2023-05-29T05:01:08;19.52;;;8.10;;
74908;SDS011;63468;52.058;4.824;2023-05-29T05:03:34;16.58;;;7.78;;
74908;SDS011;63468;52.058;4.824;2023-05-29T05:06:00;13.32;;;8.18;;
74908;SDS011;63468;52.058;4.824;2023-05-29T05:08:30;13.63;;;8.23;;
74908;SDS011;63468;52.058;4.824;2023-05-29T05:10:56;14.82;;;8.27;;
74908;SDS011;63468;52.058;4.824;2023-05-29T05:13:21;13.23;;;7.90;;
74908;SDS011;63468;52.058;4.824;2023-05-29T05:15:47;12.18;;;8.60;;
74908;SDS011;63468;52.058;4.824;2023-05-29T05:18:12;15.32;;;8.80;;
74908;SDS011;63468;52.058;4.824;2023-05-29T05:20:38;13.88;;;9.13;;
74908;SDS011;63468;52.058;4.824;2023-05-29T05:23:03;15.60;;;9.07;;
74908;SDS011;63468;52.058;4.824;2023-05-29T05:25:28;14.80;;;9.27;;
74908;SDS011;63468;52.058;4.824;2023-05-29T05:27:54;14.40;;;9.15;;
74908;SDS011;63468;52.058;4.824;2023-05-29T05:30:19;17.55;;;9.07;;
74908;SDS011;63468;52.058;4.824;2023-05-29T05:32:45;20.38;;;8.90;;
74908;SDS011;63468;52.058;4.824;2023-05-29T05:35:10;14.80;;;9.30;;
74908;SDS011;63468;52.058;4.824;2023-05-29T05:37:36;15.52;;;9.00;;
74908;SDS011;63468;52.058;4.824;2023-05-29T05:40:02;12.98;;;9.20;;
74908;SDS011;63468;52.058;4.824;2023-05-29T05:42:28;16.38;;;9.13;;
74908;SDS011;63468;52.058;4.824;2023-05-29T05:44:54;17.05;;;9.68;;
74908;SDS011;63468;52.058;4.824;2023-05-29T05:47:19;16.30;;;9.45;;
74908;SDS011;63468;52.058;4.824;2023-05-29T05:49:45;16.20;;;9.38;;
74908;SDS011;63468;52.058;4.824;2023-05-29T05:52:10;13.40;;;9.20;;
74908;SDS011;63468;52.058;4.824;2023-05-29T05:54:35;16.20;;;8.90;;
74908;SDS011;63468;52.058;4.824;2023-05-29T05:57:01;16.17;;;9.00;;
74908;SDS011;63468;52.058;4.824;2023-05-29T05:59:28;13.75;;;8.77;;
74908;SDS011;63468;52.058;4.824;2023-05-29T06:01:53;17.23;;;10.38;;
74908;SDS011;63468;52.058;4.824;2023-05-29T06:04:18;16.13;;;8.73;;
74908;SDS011;63468;52.058;4.824;2023-05-29T06:06:44;16.55;;;8.93;;
74908;SDS011;63468;52.058;4.824;2023-05-29T06:09:09;15.30;;;8.23;;
74908;SDS011;63468;52.058;4.824;2023-05-29T06:11:36;12.27;;;8.80;;
74908;SDS011;63468;52.058;4.824;2023-05-29T06:14:02;12.32;;;8.52;;
74908;SDS011;63468;52.058;4.824;2023-05-29T06:16:28;14.95;;;8.23;;
74908;SDS011;63468;52.058;4.824;2023-05-29T06:18:53;10.25;;;7.82;;
74908;SDS011;63468;52.058;4.824;2023-05-29T06:21:18;23.02;;;9.05;;
74908;SDS011;63468;52.058;4.824;2023-05-29T06:23:44;17.30;;;9.73;;
74908;SDS011;63468;52.058;4.824;2023-05-29T06:26:09;13.63;;;9.55;;
74908;SDS011;63468;52.058;4.824;2023-05-29T06:28:36;13.95;;;8.60;;
74908;SDS011;63468;52.058;4.824;2023-05-29T06:31:01;10.57;;;8.38;;
74908;SDS011;63468;52.058;4.824;2023-05-29T06:33:27;16.92;;;9.38;;
74908;SDS011;63468;52.058;4.824;2023-05-29T06:35:52;14.25;;;9.30;;
74908;SDS011;63468;52.058;4.824;2023-05-29T06:38:17;15.40;;;9.02;;
74908;SDS011;63468;52.058;4.824;2023-05-29T06:40:43;13.35;;;9.05;;
74908;SDS011;63468;52.058;4.824;2023-05-29T06:43:08;14.38;;;9.27;;
74908;SDS011;63468;52.058;4.824;2023-05-29T06:45:34;14.93;;;8.52;;
74908;SDS011;63468;52.058;4.824;2023-05-29T06:47:59;14.02;;;8.45;;
74908;SDS011;63468;52.058;4.824;2023-05-29T06:50:25;12.38;;;9.02;;
74908;SDS011;63468;52.058;4.824;2023-05-29T06:52:50;13.38;;;9.32;;
74908;SDS011;63468;52.058;4.824;2023-05-29T06:55:16;18.50;;;8.98;;
74908;SDS011;63468;52.058;4.824;2023-05-29T06:57:41;11.88;;;8.75;;
74908;SDS011;63468;52.058;4.824;2023-05-29T07:00:07;13.90;;;9.38;;
74908;SDS011;63468;52.058;4.824;2023-05-29T07:02:34;10.77;;;9.00;;
74908;SDS011;63468;52.058;4.824;2023-05-29T07:05:00;13.77;;;9.13;;
74908;SDS011;63468;52.058;4.824;2023-05-29T07:07:25;12.45;;;8.55;;
74908;SDS011;63468;52.058;4.824;2023-05-29T07:09:50;14.52;;;8.82;;
74908;SDS011;63468;52.058;4.824;2023-05-29T07:12:16;15.20;;;9.10;;
74908;SDS011;63468;52.058;4.824;2023-05-29T07:14:41;12.25;;;9.38;;
74908;SDS011;63468;52.058;4.824;2023-05-29T07:17:07;15.15;;;8.98;;
74908;SDS011;63468;52.058;4.824;2023-05-29T07:19:32;18.08;;;10.35;;
74908;SDS011;63468;52.058;4.824;2023-05-29T07:21:58;10.13;;;8.60;;
74908;SDS011;63468;52.058;4.824;2023-05-29T07:24:24;14.32;;;9.43;;
74908;SDS011;63468;52.058;4.824;2023-05-29T07:26:49;11.30;;;9.00;;
74908;SDS011;63468;52.058;4.824;2023-05-29T07:29:15;12.77;;;8.98;;
74908;SDS011;63468;52.058;4.824;2023-05-29T07:31:42;12.07;;;9.23;;
74908;SDS011;63468;52.058;4.824;2023-05-29T07:34:08;12.52;;;9.27;;
74908;SDS011;63468;52.058;4.824;2023-05-29T07:36:33;15.60;;;9.10;;
74908;SDS011;63468;52.058;4.824;2023-05-29T07:38:59;11.13;;;9.23;;
74908;SDS011;63468;52.058;4.824;2023-05-29T07:41:24;17.75;;;8.98;;
74908;SDS011;63468;52.058;4.824;2023-05-29T07:43:51;15.52;;;10.10;;
74908;SDS011;63468;52.058;4.824;2023-05-29T07:46:17;12.05;;;9.98;;
74908;SDS011;63468;52.058;4.824;2023-05-29T07:48:43;17.65;;;9.30;;
74908;SDS011;63468;52.058;4.824;2023-05-29T07:51:10;15.82;;;11.10;;
74908;SDS011;63468;52.058;4.824;2023-05-29T07:53:36;11.77;;;9.43;;
74908;SDS011;63468;52.058;4.824;2023-05-29T07:56:01;13.50;;;9.48;;
74908;SDS011;63468;52.058;4.824;2023-05-29T07:58:26;10.15;;;8.80;;
74908;SDS011;63468;52.058;4.824;2023-05-29T08:00:52;14.00;;;9.82;;
74908;SDS011;63468;52.058;4.824;2023-05-29T08:03:18;12.65;;;9.65;;
74908;SDS011;63468;52.058;4.824;2023-05-29T08:05:43;13.75;;;9.70;;
74908;SDS011;63468;52.058;4.824;2023-05-29T08:08:08;11.50;;;9.32;;
74908;SDS011;63468;52.058;4.824;2023-05-29T08:10:37;12.90;;;9.77;;
74908;SDS011;63468;52.058;4.824;2023-05-29T08:13:02;16.80;;;8.98;;
74908;SDS011;63468;52.058;4.824;2023-05-29T08:15:27;12.55;;;9.55;;
74908;SDS011;63468;52.058;4.824;2023-05-29T08:17:53;14.60;;;9.55;;
74908;SDS011;63468;52.058;4.824;2023-05-29T08:20:18;14.15;;;9.65;;
74908;SDS011;63468;52.058;4.824;2023-05-29T08:22:43;12.15;;;8.80;;
74908;SDS011;63468;52.058;4.824;2023-05-29T08:25:09;11.65;;;9.45;;
74908;SDS011;63468;52.058;4.824;2023-05-29T08:27:35;18.33;;;9.75;;
74908;SDS011;63468;52.058;4.824;2023-05-29T08:30:00;12.60;;;9.77;;
74908;SDS011;63468;52.058;4.824;2023-05-29T08:32:27;10.60;;;9.25;;
74908;SDS011;63468;52.058;4.824;2023-05-29T08:34:52;14.55;;;9.38;;
74908;SDS011;63468;52.058;4.824;2023-05-29T08:37:17;16.25;;;10.60;;
74908;SDS011;63468;52.058;4.824;2023-05-29T08:39:42;10.20;;;9.10;;
74908;SDS011;63468;52.058;4.824;2023-05-29T08:42:10;9.73;;;8.73;;
74908;SDS011;63468;52.058;4.824;2023-05-29T08:44:39;18.70;;;9.05;;
74908;SDS011;63468;52.058;4.824;2023-05-29T08:47:05;12.55;;;9.15;;
74908;SDS011;63468;52.058;4.824;2023-05-29T08:49:41;14.07;;;9.20;;
74908;SDS011;63468;52.058;4.824;2023-05-29T08:52:18;12.20;;;8.88;;
74908;SDS011;63468;52.058;4.824;2023-05-29T08:54:45;11.80;;;8.77;;
74908;SDS011;63468;52.058;4.824;2023-05-29T08:57:11;11.32;;;8.52;;
74908;SDS011;63468;52.058;4.824;2023-05-29T08:59:37;11.38;;;8.70;;
74908;SDS011;63468;52.058;4.824;2023-05-29T09:02:05;15.35;;;9.23;;
74908;SDS011;63468;52.058;4.824;2023-05-29T09:04:31;12.38;;;8.60;;
74908;SDS011;63468;52.058;4.824;2023-05-29T09:06:57;12.95;;;8.63;;
74908;SDS011;63468;52.058;4.824;2023-05-29T09:09:23;16.02;;;9.43;;
74908;SDS011;63468;52.058;4.824;2023-05-29T09:11:49;11.25;;;8.93;;
74908;SDS011;63468;52.058;4.824;2023-05-29T09:17:00;16.48;;;8.88;;
74908;SDS011;63468;52.058;4.824;2023-05-29T09:19:25;13.68;;;9.15;;
74908;SDS011;63468;52.058;4.824;2023-05-29T09:21:51;11.25;;;8.95;;
74908;SDS011;63468;52.058;4.824;2023-05-29T09:24:16;10.82;;;8.93;;
74908;SDS011;63468;52.058;4.824;2023-05-29T09:26:48;11.80;;;8.80;;
74908;SDS011;63468;52.058;4.824;2023-05-29T09:29:15;13.38;;;9.27;;
74908;SDS011;63468;52.058;4.824;2023-05-29T09:31:45;17.92;;;9.18;;
74908;SDS011;63468;52.058;4.824;2023-05-29T09:34:11;12.75;;;9.73;;
74908;SDS011;63468;52.058;4.824;2023-05-29T09:36:37;11.43;;;9.20;;
74908;SDS011;63468;52.058;4.824;2023-05-29T09:39:03;10.95;;;8.95;;
74908;SDS011;63468;52.058;4.824;2023-05-29T09:41:28;15.90;;;9.20;;
74908;SDS011;63468;52.058;4.824;2023-05-29T09:43:56;11.88;;;8.80;;
74908;SDS011;63468;52.058;4.824;2023-05-29T09:46:21;13.57;;;8.90;;
74908;SDS011;63468;52.058;4.824;2023-05-29T09:48:46;11.02;;;8.55;;
74908;SDS011;63468;52.058;4.824;2023-05-29T09:51:21;11.10;;;9.73;;
74908;SDS011;63468;52.058;4.824;2023-05-29T09:53:47;13.73;;;9.07;;
74908;SDS011;63468;52.058;4.824;2023-05-29T09:56:13;12.40;;;9.23;;
74908;SDS011;63468;52.058;4.824;2023-05-29T09:58:42;10.98;;;9.20;;
74908;SDS011;63468;52.058;4.824;2023-05-29T10:01:12;10.32;;;8.85;;
74908;SDS011;63468;52.058;4.824;2023-05-29T10:03:40;10.70;;;8.93;;
74908;SDS011;63468;52.058;4.824;2023-05-29T10:06:06;14.52;;;9.27;;
74908;SDS011;63468;52.058;4.824;2023-05-29T10:08:34;13.50;;;9.02;;
74908;SDS011;63468;52.058;4.824;2023-05-29T10:11:02;12.68;;;9.52;;
74908;SDS011;63468;52.058;4.824;2023-05-29T10:13:30;12.48;;;9.30;;
74908;SDS011;63468;52.058;4.824;2023-05-29T10:16:03;16.45;;;12.05;;
74908;SDS011;63468;52.058;4.824;2023-05-29T10:18:33;15.55;;;9.52;;
74908;SDS011;63468;52.058;4.824;2023-05-29T10:21:01;13.75;;;9.48;;
74908;SDS011;63468;52.058;4.824;2023-05-29T10:23:26;13.25;;;9.75;;
74908;SDS011;63468;52.058;4.824;2023-05-29T10:25:53;11.65;;;10.02;;
74908;SDS011;63468;52.058;4.824;2023-05-29T10:28:24;12.57;;;9.73;;
74908;SDS011;63468;52.058;4.824;2023-05-29T10:31:09;15.75;;;9.75;;
74908;SDS011;63468;52.058;4.824;2023-05-29T10:36:13;12.82;;;9.43;;
74908;SDS011;63468;52.058;4.824;2023-05-29T10:38:44;19.25;;;11.05;;
74908;SDS011;63468;52.058;4.824;2023-05-29T10:43:53;12.20;;;9.65;;
74908;SDS011;63468;52.058;4.824;2023-05-29T10:46:19;13.60;;;9.60;;
74908;SDS011;63468;52.058;4.824;2023-05-29T10:48:44;14.63;;;9.82;;
74908;SDS011;63468;52.058;4.824;2023-05-29T10:51:23;16.05;;;9.80;;
74908;SDS011;63468;52.058;4.824;2023-05-29T10:53:49;13.50;;;10.38;;
74908;SDS011;63468;52.058;4.824;2023-05-29T10:56:15;13.10;;;10.32;;
74908;SDS011;63468;52.058;4.824;2023-05-29T10:58:46;12.23;;;9.73;;
74908;SDS011;63468;52.058;4.824;2023-05-29T11:03:43;13.30;;;10.50;;
74908;SDS011;63468;52.058;4.824;2023-05-29T11:06:18;14.43;;;10.20;;
74908;SDS011;63468;52.058;4.824;2023-05-29T11:13:52;16.83;;;10.18;;
74908;SDS011;63468;52.058;4.824;2023-05-29T11:18:55;13.35;;;10.35;;
74908;SDS011;63468;52.058;4.824;2023-05-29T11:24:09;13.10;;;9.63;;
74908;SDS011;63468;52.058;4.824;2023-05-29T11:26:44;14.85;;;10.15;;
74908;SDS011;63468;52.058;4.824;2023-05-29T11:29:10;14.32;;;9.90;;
74908;SDS011;63468;52.058;4.824;2023-05-29T11:31:36;16.38;;;11.32;;
74908;SDS011;63468;52.058;4.824;2023-05-29T11:34:02;17.27;;;10.77;;
74908;SDS011;63468;52.058;4.824;2023-05-29T11:36:31;20.00;;;10.32;;
74908;SDS011;63468;52.058;4.824;2023-05-29T11:38:57;16.63;;;10.45;;
74908;SDS011;63468;52.058;4.824;2023-05-29T11:41:23;16.05;;;11.30;;
74908;SDS011;63468;52.058;4.824;2023-05-29T11:43:58;13.40;;;10.40;;
74908;SDS011;63468;52.058;4.824;2023-05-29T11:46:28;18.92;;;10.93;;
74908;SDS011;63468;52.058;4.824;2023-05-29T11:48:57;13.38;;;10.30;;
74908;SDS011;63468;52.058;4.824;2023-05-29T11:51:22;19.20;;;11.30;;
74908;SDS011;63468;52.058;4.824;2023-05-29T11:53:48;17.13;;;11.30;;
74908;SDS011;63468;52.058;4.824;2023-05-29T11:56:13;15.02;;;11.27;;
74908;SDS011;63468;52.058;4.824;2023-05-29T11:58:39;20.58;;;11.07;;
74908;SDS011;63468;52.058;4.824;2023-05-29T12:01:06;16.27;;;10.73;;
74908;SDS011;63468;52.058;4.824;2023-05-29T12:03:41;14.32;;;10.23;;
74908;SDS011;63468;52.058;4.824;2023-05-29T12:06:10;12.93;;;9.52;;
74908;SDS011;63468;52.058;4.824;2023-05-29T12:08:36;17.60;;;10.40;;
74908;SDS011;63468;52.058;4.824;2023-05-29T12:11:02;14.60;;;10.23;;
74908;SDS011;63468;52.058;4.824;2023-05-29T12:13:27;18.92;;;10.35;;
74908;SDS011;63468;52.058;4.824;2023-05-29T12:15:54;14.93;;;10.02;;
74908;SDS011;63468;52.058;4.824;2023-05-29T12:18:21;14.80;;;10.50;;
74908;SDS011;63468;52.058;4.824;2023-05-29T12:20:47;20.80;;;11.85;;
74908;SDS011;63468;52.058;4.824;2023-05-29T12:23:12;18.60;;;11.32;;
74908;SDS011;63468;52.058;4.824;2023-05-29T12:25:37;19.67;;;10.85;;
74908;SDS011;63468;52.058;4.824;2023-05-29T12:28:03;15.48;;;10.70;;
74908;SDS011;63468;52.058;4.824;2023-05-29T12:30:29;14.98;;;10.15;;
74908;SDS011;63468;52.058;4.824;2023-05-29T12:32:55;16.60;;;9.98;;
74908;SDS011;63468;52.058;4.824;2023-05-29T12:35:25;13.23;;;10.00;;
74908;SDS011;63468;52.058;4.824;2023-05-29T12:38:01;14.07;;;11.25;;
74908;SDS011;63468;52.058;4.824;2023-05-29T12:40:33;17.23;;;9.93;;
74908;SDS011;63468;52.058;4.824;2023-05-29T12:45:26;20.20;;;10.43;;
74908;SDS011;63468;52.058;4.824;2023-05-29T12:47:53;16.42;;;10.73;;
74908;SDS011;63468;52.058;4.824;2023-05-29T12:52:54;15.98;;;10.23;;
74908;SDS011;63468;52.058;4.824;2023-05-29T12:55:22;14.57;;;10.15;;
74908;SDS011;63468;52.058;4.824;2023-05-29T12:57:48;13.23;;;10.55;;
74908;SDS011;63468;52.058;4.824;2023-05-29T13:00:14;16.52;;;10.32;;
74908;SDS011;63468;52.058;4.824;2023-05-29T13:02:39;19.80;;;10.90;;
74908;SDS011;63468;52.058;4.824;2023-05-29T13:05:05;13.77;;;10.73;;
74908;SDS011;63468;52.058;4.824;2023-05-29T13:07:31;12.82;;;9.70;;
74908;SDS011;63468;52.058;4.824;2023-05-29T13:09:57;14.15;;;10.48;;
74908;SDS011;63468;52.058;4.824;2023-05-29T13:12:22;12.57;;;10.35;;
74908;SDS011;63468;52.058;4.824;2023-05-29T13:14:48;22.63;;;10.70;;
74908;SDS011;63468;52.058;4.824;2023-05-29T13:17:13;12.88;;;11.02;;
74908;SDS011;63468;52.058;4.824;2023-05-29T13:19:41;12.07;;;10.60;;
74908;SDS011;63468;52.058;4.824;2023-05-29T13:22:07;16.08;;;10.23;;
74908;SDS011;63468;52.058;4.824;2023-05-29T13:24:32;13.95;;;10.85;;
74908;SDS011;63468;52.058;4.824;2023-05-29T13:26:57;19.88;;;11.82;;
74908;SDS011;63468;52.058;4.824;2023-05-29T13:29:25;18.80;;;11.55;;
74908;SDS011;63468;52.058;4.824;2023-05-29T13:31:50;14.55;;;11.35;;
74908;SDS011;63468;52.058;4.824;2023-05-29T13:34:16;18.77;;;11.38;;
74908;SDS011;63468;52.058;4.824;2023-05-29T13:36:41;17.75;;;11.75;;
74908;SDS011;63468;52.058;4.824;2023-05-29T13:39:07;16.30;;;11.02;;
74908;SDS011;63468;52.058;4.824;2023-05-29T13:41:32;13.98;;;10.35;;
74908;SDS011;63468;52.058;4.824;2023-05-29T13:43:57;18.25;;;10.07;;
74908;SDS011;63468;52.058;4.824;2023-05-29T13:46:23;18.13;;;10.38;;
74908;SDS011;63468;52.058;4.824;2023-05-29T13:48:48;18.88;;;11.15;;
74908;SDS011;63468;52.058;4.824;2023-05-29T13:51:14;14.02;;;10.68;;
74908;SDS011;63468;52.058;4.824;2023-05-29T13:53:39;12.52;;;11.25;;
74908;SDS011;63468;52.058;4.824;2023-05-29T13:56:05;11.73;;;9.95;;
74908;SDS011;63468;52.058;4.824;2023-05-29T13:58:30;15.13;;;9.70;;
74908;SDS011;63468;52.058;4.824;2023-05-29T14:00:55;13.30;;;10.35;;
74908;SDS011;63468;52.058;4.824;2023-05-29T14:03:20;17.13;;;10.27;;
74908;SDS011;63468;52.058;4.824;2023-05-29T14:05:49;14.13;;;10.57;;
74908;SDS011;63468;52.058;4.824;2023-05-29T14:08:14;14.05;;;9.90;;
74908;SDS011;63468;52.058;4.824;2023-05-29T14:10:39;12.85;;;10.00;;
74908;SDS011;63468;52.058;4.824;2023-05-29T14:13:04;18.95;;;11.32;;
74908;SDS011;63468;52.058;4.824;2023-05-29T14:15:32;13.88;;;10.02;;
74908;SDS011;63468;52.058;4.824;2023-05-29T14:17:58;15.98;;;10.80;;
74908;SDS011;63468;52.058;4.824;2023-05-29T14:20:23;16.65;;;10.70;;
74908;SDS011;63468;52.058;4.824;2023-05-29T14:22:51;15.55;;;10.90;;
74908;SDS011;63468;52.058;4.824;2023-05-29T14:25:16;13.63;;;9.88;;
74908;SDS011;63468;52.058;4.824;2023-05-29T14:27:42;16.30;;;10.90;;
74908;SDS011;63468;52.058;4.824;2023-05-29T14:30:07;14.07;;;10.52;;
74908;SDS011;63468;52.058;4.824;2023-05-29T14:32:33;14.23;;;10.23;;
74908;SDS011;63468;52.058;4.824;2023-05-29T14:34:58;15.30;;;11.48;;
74908;SDS011;63468;52.058;4.824;2023-05-29T14:37:23;19.42;;;10.45;;
74908;SDS011;63468;52.058;4.824;2023-05-29T14:39:49;16.30;;;10.60;;
74908;SDS011;63468;52.058;4.824;2023-05-29T14:42:14;14.65;;;10.07;;
74908;SDS011;63468;52.058;4.824;2023-05-29T14:44:41;12.70;;;9.70;;
74908;SDS011;63468;52.058;4.824;2023-05-29T14:47:06;12.98;;;10.07;;
74908;SDS011;63468;52.058;4.824;2023-05-29T14:49:31;17.45;;;10.48;;
74908;SDS011;63468;52.058;4.824;2023-05-29T14:51:58;17.23;;;10.77;;